Berta — V2BQ6 — position and weather

sailwx.info

Track history (hours):
 
Tides and Currents Weather Stations Pressure Air Temp Water Temp Dewpoint Dewpoint Depression Visibility Wind Speed Wind Dir Waves Ship Positions

Berta

Last reported at 2015-Mar-05 18:34 UTC. Time now 2015-Mar-05 18:43 UTC.
Position N 53°51' E 009°01'.

Length 119 m; draft 6.6 m.

Type: Cargo ship. MMSI: 304586000.

Date/timePositionNaut miles runAvg speedWind from/ knotsBaromVisibWave heightAir tempDewpointWater temp
2015-Mar-05 18:34N 53°51' E 009°01'10 9.9
2015-Mar-05 17:33N 53°52' E 008°44'1010.0
2015-Mar-05 16:33N 53°58' E 008°31'1212.4
2015-Mar-05 15:33N 53°59' E 008°10'1111.4
2015-Mar-05 14:33N 54°03' E 007°52'1212.4
2015-Mar-05 13:33N 54°10' E 007°34'1212.3
2015-Mar-05 12:33N 54°21' E 007°26'1312.6
2015-Mar-05 11:33N 54°33' E 007°19'1312.9
2015-Mar-05 10:33N 54°46' E 007°13'1313.2
2015-Mar-05 09:34N 54°58' E 007°05'1313.2
2015-Mar-05 08:33N 55°11' E 007°02'1313.1
2015-Mar-05 07:33N 55°24' E 006°60'1514.7
2015-Mar-05 06:33N 55°39' E 006°57'156 9.8
2015-Mar-04 14:33N 58°14' E 006°25'1212.2
2015-Mar-04 13:33N 58°20' E 006°05'1413.7
2015-Mar-04 12:33N 58°27' E 005°43'1313.2
2015-Mar-04 11:32N 58°38' E 005°28'1313.1
2015-Mar-04 10:33N 58°51' E 005°20'1312.8
2015-Mar-04 09:34N 59°03' E 005°11'1211.8
2015-Mar-04 08:33N 59°13' E 005°02'  
2015-Mar-01 08:04N 59°37' E 004°52'2114.1
2015-Mar-01 06:33N 59°16' E 005°00'1212.2
2015-Mar-01 05:33N 59°07' E 005°15'7 7.1
2015-Mar-01 04:34N 59°13' E 005°20'7 7.2
2015-Mar-01 03:33N 59°20' E 005°18'0 0.0
2015-Mar-01 02:33N 59°20' E 005°18'0 0.0
2015-Mar-01 01:32N 59°20' E 005°18'0 0.0
2015-Mar-01 00:32N 59°20' E 005°18'0 0.0
2015-Feb-28 23:33N 59°20' E 005°18'0 0.0
2015-Feb-28 22:33N 59°20' E 005°18'0 0.0
2015-Feb-28 21:32N 59°20' E 005°18'0 0.1
2015-Feb-28 20:31N 59°20' E 005°18'5 5.6
2015-Feb-28 19:33N 59°15' E 005°21'8 7.9
2015-Feb-28 18:34N 59°07' E 005°18'9 8.5
2015-Feb-28 17:29N 59°16' E 005°20'4 4.5
2015-Feb-28 16:33N 59°20' E 005°18'0 0.0
2015-Feb-28 15:33N 59°20' E 005°18'0 0.0
2015-Feb-28 14:33N 59°20' E 005°18'0 0.0
2015-Feb-28 13:33N 59°20' E 005°18'0 0.0
2015-Feb-28 12:33N 59°20' E 005°18'0 0.0
2015-Feb-28 11:33N 59°20' E 005°18'0 0.0
2015-Feb-28 10:33N 59°20' E 005°18'0 0.0
2015-Feb-28 09:33N 59°20' E 005°18'0 0.1
2015-Feb-28 08:32N 59°20' E 005°18'8 7.7
2015-Feb-28 07:33N 59°13' E 005°21'1313.0
2015-Feb-28 06:33N 59°01' E 005°33'6 6.2
2015-Feb-28 05:33N 58°55' E 005°35'1 0.5
2015-Feb-28 04:33N 58°56' E 005°35'1110.8
2015-Feb-28 03:33N 58°46' E 005°25'1414.1
2015-Feb-28 02:33N 58°32' E 005°31'1413.9
2015-Feb-28 01:33N 58°19' E 005°37'1313.4
2015-Feb-28 00:33N 58°06' E 005°43'15213.5
2015-Feb-27 13:21N 55°38' E 006°48'6 8.0
2015-Feb-27 12:33N 55°32' E 006°51'1313.2
2015-Feb-27 11:33N 55°19' E 006°56'1313.3
2015-Feb-27 10:33N 55°07' E 007°02'1313.4
2015-Feb-27 09:33N 54°54' E 007°09'1413.8
2015-Feb-27 08:34N 54°41' E 007°17'1413.9
2015-Feb-27 07:33N 54°28' E 007°25'1413.9
2015-Feb-27 06:33N 54°15' E 007°33'1312.8
2015-Feb-27 05:33N 54°07' E 007°50'1312.8
2015-Feb-27 04:33N 54°01' E 008°10'1212.2
2015-Feb-27 03:33N 53°59' E 008°30'1010.2
2015-Feb-27 02:33N 53°52' E 008°44'1312.9
2015-Feb-27 01:34N 53°53' E 009°05'1313.2
2015-Feb-27 00:34N 53°46' E 009°24'1313.0
2015-Feb-26 23:33N 53°35' E 009°37'1111.1
2015-Feb-26 22:33N 53°33' E 009°55'3 2.4
2015-Feb-26 21:30N 53°30' E 009°56'0 0.0
2015-Feb-26 20:27N 53°30' E 009°56'0 0.0
2015-Feb-26 19:28N 53°30' E 009°56'0 0.0
2015-Feb-26 18:31N 53°30' E 009°56'0 0.0
2015-Feb-26 17:33N 53°30' E 009°56'0 0.0
2015-Feb-26 16:33N 53°30' E 009°56'0 0.0
2015-Feb-26 15:33N 53°30' E 009°56'2 1.7
2015-Feb-26 14:28N 53°32' E 009°56'1 0.9
2015-Feb-26 13:28N 53°32' E 009°55'0 0.0
2015-Feb-26 12:34N 53°32' E 009°55'0 0.0
2015-Feb-26 11:28N 53°32' E 009°55'0 0.0
2015-Feb-26 10:34N 53°32' E 009°55'0 0.0
2015-Feb-26 09:32N 53°32' E 009°55'0 0.0
2015-Feb-26 08:33N 53°32' E 009°55'0 0.0
2015-Feb-26 07:33N 53°32' E 009°55'1 0.7
2015-Feb-26 06:32N 53°32' E 009°55'0 0.0
2015-Feb-26 05:29N 53°32' E 009°55'0 0.0
2015-Feb-26 04:32N 53°32' E 009°55'0 0.2
2015-Feb-26 03:33N 53°32' E 009°55'7 6.9
2015-Feb-26 02:33N 53°34' E 009°44'1010.4
2015-Feb-26 01:33N 53°41' E 009°30'1111.0
2015-Feb-26 00:33N 53°50' E 009°21'1010.0
2015-Feb-25 23:33N 53°52' E 009°04'10 9.9
2015-Feb-25 22:33N 53°50' E 008°48'9 9.2
2015-Feb-25 21:33N 53°57' E 008°37'1110.7
2015-Feb-25 20:33N 53°59' E 008°20'1211.9
2015-Feb-25 19:33N 54°01' E 007°60'1111.4
2015-Feb-25 18:33N 54°07' E 007°43'1010.5
2015-Feb-25 17:33N 54°14' E 007°30'1111.1
2015-Feb-25 16:33N 54°25' E 007°24'1211.6
2015-Feb-25 15:33N 54°36' E 007°18'1313.4
2015-Feb-25 14:33N 54°49' E 007°11'1111.2
2015-Feb-25 13:33N 54°59' E 007°05'1111.0
2015-Feb-25 12:33N 55°10' E 006°59'1211.7
2015-Feb-25 11:33N 55°21' E 006°53'1212.3
2015-Feb-25 10:34N 55°33' E 006°47'15310.9
2015-Feb-24 20:33N 58°01' E 005°38'10 9.8
2015-Feb-24 19:33N 58°10' E 005°34'10 9.7
2015-Feb-24 18:33N 58°20' E 005°31'10 9.7
2015-Feb-24 17:33N 58°30' E 005°28'10 9.7
2015-Feb-24 16:33N 58°39' E 005°26'10 9.5
2015-Feb-24 15:33N 58°49' E 005°25'1110.8
2015-Feb-24 14:33N 58°59' E 005°33'1110.7
2015-Feb-24 13:33N 59°09' E 005°33'1110.6
2015-Feb-24 12:33N 59°17' E 005°46'1712.1
2015-Feb-24 11:10N 59°28' E 006°12'6 1.3
2015-Feb-24 06:12N 59°23' E 006°03'811.7
2015-Feb-24 05:33N 59°19' E 005°51'1212.5
2015-Feb-24 04:33N 59°10' E 005°34'8 7.9
2015-Feb-24 03:33N 59°06' E 005°20'8 7.9
2015-Feb-24 02:33N 59°10' E 005°07'  
Track history (hours):
 
Tides and Currents Weather Stations Pressure Air Temp Water Temp Dewpoint Dewpoint Depression Visibility Wind Speed Wind Dir Waves Ship Positions

Berta

Last reported at 2015-Mar-05 18:34 UTC. Time now 2015-Mar-05 18:43 UTC.
Position N 53°51' E 009°01'.

Length 119 m; draft 6.6 m.

Type: Cargo ship. MMSI: 304586000.

Date/timePositionNaut miles runAvg speedWind from/ knotsBaromVisibWave heightAir tempDewpointWater temp
2015-Mar-05 18:34N 53°51' E 009°01'10 9.9
2015-Mar-05 17:33N 53°52' E 008°44'1010.0
2015-Mar-05 16:33N 53°58' E 008°31'1212.4
2015-Mar-05 15:33N 53°59' E 008°10'1111.4
2015-Mar-05 14:33N 54°03' E 007°52'1212.4
2015-Mar-05 13:33N 54°10' E 007°34'1212.3
2015-Mar-05 12:33N 54°21' E 007°26'1312.6
2015-Mar-05 11:33N 54°33' E 007°19'1312.9
2015-Mar-05 10:33N 54°46' E 007°13'1313.2
2015-Mar-05 09:34N 54°58' E 007°05'1313.2
2015-Mar-05 08:33N 55°11' E 007°02'1313.1
2015-Mar-05 07:33N 55°24' E 006°60'1514.7
2015-Mar-05 06:33N 55°39' E 006°57'156 9.8
2015-Mar-04 14:33N 58°14' E 006°25'1212.2
2015-Mar-04 13:33N 58°20' E 006°05'1413.7
2015-Mar-04 12:33N 58°27' E 005°43'1313.2
2015-Mar-04 11:32N 58°38' E 005°28'1313.1
2015-Mar-04 10:33N 58°51' E 005°20'1312.8
2015-Mar-04 09:34N 59°03' E 005°11'1211.8
2015-Mar-04 08:33N 59°13' E 005°02'  
2015-Mar-01 08:04N 59°37' E 004°52'2114.1
2015-Mar-01 06:33N 59°16' E 005°00'1212.2
2015-Mar-01 05:33N 59°07' E 005°15'7 7.1
2015-Mar-01 04:34N 59°13' E 005°20'7 7.2
2015-Mar-01 03:33N 59°20' E 005°18'0 0.0
2015-Mar-01 02:33N 59°20' E 005°18'0 0.0
2015-Mar-01 01:32N 59°20' E 005°18'0 0.0
2015-Mar-01 00:32N 59°20' E 005°18'0 0.0
2015-Feb-28 23:33N 59°20' E 005°18'0 0.0
2015-Feb-28 22:33N 59°20' E 005°18'0 0.0
2015-Feb-28 21:32N 59°20' E 005°18'0 0.1
2015-Feb-28 20:31N 59°20' E 005°18'5 5.6
2015-Feb-28 19:33N 59°15' E 005°21'8 7.9
2015-Feb-28 18:34N 59°07' E 005°18'9 8.5
2015-Feb-28 17:29N 59°16' E 005°20'4 4.5
2015-Feb-28 16:33N 59°20' E 005°18'0 0.0
2015-Feb-28 15:33N 59°20' E 005°18'0 0.0
2015-Feb-28 14:33N 59°20' E 005°18'0 0.0
2015-Feb-28 13:33N 59°20' E 005°18'0 0.0
2015-Feb-28 12:33N 59°20' E 005°18'0 0.0
2015-Feb-28 11:33N 59°20' E 005°18'0 0.0
2015-Feb-28 10:33N 59°20' E 005°18'0 0.0
2015-Feb-28 09:33N 59°20' E 005°18'0 0.1
2015-Feb-28 08:32N 59°20' E 005°18'8 7.7
2015-Feb-28 07:33N 59°13' E 005°21'1313.0
2015-Feb-28 06:33N 59°01' E 005°33'6 6.2
2015-Feb-28 05:33N 58°55' E 005°35'1 0.5
2015-Feb-28 04:33N 58°56' E 005°35'1110.8
2015-Feb-28 03:33N 58°46' E 005°25'1414.1
2015-Feb-28 02:33N 58°32' E 005°31'1413.9
2015-Feb-28 01:33N 58°19' E 005°37'1313.4
2015-Feb-28 00:33N 58°06' E 005°43'15213.5
2015-Feb-27 13:21N 55°38' E 006°48'6 8.0
2015-Feb-27 12:33N 55°32' E 006°51'1313.2
2015-Feb-27 11:33N 55°19' E 006°56'1313.3
2015-Feb-27 10:33N 55°07' E 007°02'1313.4
2015-Feb-27 09:33N 54°54' E 007°09'1413.8
2015-Feb-27 08:34N 54°41' E 007°17'1413.9
2015-Feb-27 07:33N 54°28' E 007°25'1413.9
2015-Feb-27 06:33N 54°15' E 007°33'1312.8
2015-Feb-27 05:33N 54°07' E 007°50'1312.8
2015-Feb-27 04:33N 54°01' E 008°10'1212.2
2015-Feb-27 03:33N 53°59' E 008°30'1010.2
2015-Feb-27 02:33N 53°52' E 008°44'1312.9
2015-Feb-27 01:34N 53°53' E 009°05'1313.2
2015-Feb-27 00:34N 53°46' E 009°24'1313.0
2015-Feb-26 23:33N 53°35' E 009°37'1111.1
2015-Feb-26 22:33N 53°33' E 009°55'3 2.4
2015-Feb-26 21:30N 53°30' E 009°56'0 0.0
2015-Feb-26 20:27N 53°30' E 009°56'0 0.0
2015-Feb-26 19:28N 53°30' E 009°56'0 0.0
2015-Feb-26 18:31N 53°30' E 009°56'0 0.0
2015-Feb-26 17:33N 53°30' E 009°56'0 0.0
2015-Feb-26 16:33N 53°30' E 009°56'0 0.0
2015-Feb-26 15:33N 53°30' E 009°56'2 1.7
2015-Feb-26 14:28N 53°32' E 009°56'1 0.9
2015-Feb-26 13:28N 53°32' E 009°55'0 0.0
2015-Feb-26 12:34N 53°32' E 009°55'0 0.0
2015-Feb-26 11:28N 53°32' E 009°55'0 0.0
2015-Feb-26 10:34N 53°32' E 009°55'0 0.0
2015-Feb-26 09:32N 53°32' E 009°55'0 0.0
2015-Feb-26 08:33N 53°32' E 009°55'0 0.0
2015-Feb-26 07:33N 53°32' E 009°55'1 0.7
2015-Feb-26 06:32N 53°32' E 009°55'0 0.0
2015-Feb-26 05:29N 53°32' E 009°55'0 0.0
2015-Feb-26 04:32N 53°32' E 009°55'0 0.2
2015-Feb-26 03:33N 53°32' E 009°55'7 6.9
2015-Feb-26 02:33N 53°34' E 009°44'1010.4
2015-Feb-26 01:33N 53°41' E 009°30'1111.0
2015-Feb-26 00:33N 53°50' E 009°21'1010.0
2015-Feb-25 23:33N 53°52' E 009°04'10 9.9
2015-Feb-25 22:33N 53°50' E 008°48'9 9.2
2015-Feb-25 21:33N 53°57' E 008°37'1110.7
2015-Feb-25 20:33N 53°59' E 008°20'1211.9
2015-Feb-25 19:33N 54°01' E 007°60'1111.4
2015-Feb-25 18:33N 54°07' E 007°43'1010.5
2015-Feb-25 17:33N 54°14' E 007°30'1111.1
2015-Feb-25 16:33N 54°25' E 007°24'1211.6
2015-Feb-25 15:33N 54°36' E 007°18'1313.4
2015-Feb-25 14:33N 54°49' E 007°11'1111.2
2015-Feb-25 13:33N 54°59' E 007°05'1111.0
2015-Feb-25 12:33N 55°10' E 006°59'1211.7
2015-Feb-25 11:33N 55°21' E 006°53'1212.3
2015-Feb-25 10:34N 55°33' E 006°47'15310.9
2015-Feb-24 20:33N 58°01' E 005°38'10 9.8
2015-Feb-24 19:33N 58°10' E 005°34'10 9.7
2015-Feb-24 18:33N 58°20' E 005°31'10 9.7
2015-Feb-24 17:33N 58°30' E 005°28'10 9.7
2015-Feb-24 16:33N 58°39' E 005°26'10 9.5
2015-Feb-24 15:33N 58°49' E 005°25'1110.8
2015-Feb-24 14:33N 58°59' E 005°33'1110.7
2015-Feb-24 13:33N 59°09' E 005°33'1110.6
2015-Feb-24 12:33N 59°17' E 005°46'1712.1
2015-Feb-24 11:10N 59°28' E 006°12'6 1.3
2015-Feb-24 06:12N 59°23' E 006°03'811.7
2015-Feb-24 05:33N 59°19' E 005°51'1212.5
2015-Feb-24 04:33N 59°10' E 005°34'8 7.9
2015-Feb-24 03:33N 59°06' E 005°20'8 7.9
2015-Feb-24 02:33N 59°10' E 005°07'  

Dump ship's entire track history